sensor_id;sensor_type;location;lat;lon;timestamp;pressure;altitude;pressure_sealevel;temperature;humidity
69796;BME280;57073;45.650;9.612;2022-11-20T00:07:45;98479.72;;;8.20;60.55
69796;BME280;57073;45.650;9.612;2022-11-20T00:17:46;98472.31;;;8.22;59.93
69796;BME280;57073;45.650;9.612;2022-11-20T00:27:46;98473.53;;;8.19;59.40
69796;BME280;57073;45.650;9.612;2022-11-20T00:37:46;98479.78;;;8.13;59.33
69796;BME280;57073;45.650;9.612;2022-11-20T00:47:47;98497.03;;;7.92;60.70
69796;BME280;57073;45.650;9.612;2022-11-20T00:57:47;98501.19;;;7.63;60.58
69796;BME280;57073;45.650;9.612;2022-11-20T01:07:47;98504.78;;;7.50;60.18
69796;BME280;57073;45.650;9.612;2022-11-20T01:17:48;98521.88;;;7.42;60.71
69796;BME280;57073;45.650;9.612;2022-11-20T01:27:48;98517.28;;;7.18;61.53
69796;BME280;57073;45.650;9.612;2022-11-20T01:37:49;98533.56;;;7.09;61.38
69796;BME280;57073;45.650;9.612;2022-11-20T01:47:50;98531.47;;;7.18;60.71
69796;BME280;57073;45.650;9.612;2022-11-20T01:57:50;98540.38;;;7.37;60.36
69796;BME280;57073;45.650;9.612;2022-11-20T02:07:52;98534.44;;;7.35;60.26
69796;BME280;57073;45.650;9.612;2022-11-20T02:17:54;98538.97;;;7.35;59.98
69796;BME280;57073;45.650;9.612;2022-11-20T02:27:55;98547.78;;;7.35;60.91
69796;BME280;57073;45.650;9.612;2022-11-20T02:37:57;98529.88;;;7.42;60.46
69796;BME280;57073;45.650;9.612;2022-11-20T02:47:59;98535.19;;;7.49;61.04
69796;BME280;57073;45.650;9.612;2022-11-20T02:58:01;98532.13;;;7.45;59.80
69796;BME280;57073;45.650;9.612;2022-11-20T03:08:01;98528.88;;;7.43;60.75
69796;BME280;57073;45.650;9.612;2022-11-20T03:18:03;98536.25;;;7.41;60.54
69796;BME280;57073;45.650;9.612;2022-11-20T03:28:03;98541.75;;;7.46;60.99
69796;BME280;57073;45.650;9.612;2022-11-20T03:38:04;98536.44;;;7.46;62.10
69796;BME280;57073;45.650;9.612;2022-11-20T03:48:04;98544.72;;;7.38;63.33
69796;BME280;57073;45.650;9.612;2022-11-20T03:58:05;98553.91;;;7.42;62.63
69796;BME280;57073;45.650;9.612;2022-11-20T04:08:05;98546.81;;;7.29;62.71
69796;BME280;57073;45.650;9.612;2022-11-20T04:18:05;98557.72;;;7.21;61.31
69796;BME280;57073;45.650;9.612;2022-11-20T04:28:06;98557.06;;;7.33;60.81
69796;BME280;57073;45.650;9.612;2022-11-20T04:38:06;98558.06;;;7.00;62.78
69796;BME280;57073;45.650;9.612;2022-11-20T04:48:07;98564.03;;;6.88;62.74
69796;BME280;57073;45.650;9.612;2022-11-20T04:58:07;98567.28;;;6.90;62.70
69796;BME280;57073;45.650;9.612;2022-11-20T05:08:07;98566.09;;;6.80;64.46
69796;BME280;57073;45.650;9.612;2022-11-20T05:18:08;98581.94;;;6.75;62.81
69796;BME280;57073;45.650;9.612;2022-11-20T05:28:08;98597.75;;;6.69;63.13
69796;BME280;57073;45.650;9.612;2022-11-20T05:38:08;98600.66;;;6.55;63.43
69796;BME280;57073;45.650;9.612;2022-11-20T05:48:09;98618.63;;;6.72;61.64
69796;BME280;57073;45.650;9.612;2022-11-20T05:58:09;98612.72;;;6.50;61.70
69796;BME280;57073;45.650;9.612;2022-11-20T06:08:09;98621.59;;;6.31;62.24
69796;BME280;57073;45.650;9.612;2022-11-20T06:18:10;98634.09;;;6.17;60.61
69796;BME280;57073;45.650;9.612;2022-11-20T06:28:10;98636.13;;;6.02;61.69
69796;BME280;57073;45.650;9.612;2022-11-20T06:38:10;98654.78;;;6.15;60.01
69796;BME280;57073;45.650;9.612;2022-11-20T06:48:11;98668.72;;;6.17;59.88
69796;BME280;57073;45.650;9.612;2022-11-20T06:58:13;98681.03;;;6.31;58.70
69796;BME280;57073;45.650;9.612;2022-11-20T07:08:14;98691.28;;;6.75;58.06
69796;BME280;57073;45.650;9.612;2022-11-20T07:18:14;98696.00;;;7.51;54.29
69796;BME280;57073;45.650;9.612;2022-11-20T07:28:15;98721.44;;;8.31;52.71
69796;BME280;57073;45.650;9.612;2022-11-20T07:38:15;98718.25;;;8.97;51.25
69796;BME280;57073;45.650;9.612;2022-11-20T07:48:15;98735.50;;;9.57;50.14
69796;BME280;57073;45.650;9.612;2022-11-20T07:58:16;98742.75;;;10.05;48.06
69796;BME280;57073;45.650;9.612;2022-11-20T08:08:16;98746.75;;;10.45;47.04
69796;BME280;57073;45.650;9.612;2022-11-20T08:18:17;98752.06;;;10.87;45.96
69796;BME280;57073;45.650;9.612;2022-11-20T08:28:18;98764.44;;;11.00;45.64
69796;BME280;57073;45.650;9.612;2022-11-20T08:38:18;98768.91;;;11.29;44.86
69796;BME280;57073;45.650;9.612;2022-11-20T08:48:18;98781.63;;;11.86;44.80
69796;BME280;57073;45.650;9.612;2022-11-20T08:58:19;98787.50;;;11.95;43.54
69796;BME280;57073;45.650;9.612;2022-11-20T09:08:19;98792.16;;;12.00;44.95
69796;BME280;57073;45.650;9.612;2022-11-20T09:18:20;98787.03;;;11.75;45.15
69796;BME280;57073;45.650;9.612;2022-11-20T09:28:21;98794.06;;;11.76;45.83
69796;BME280;57073;45.650;9.612;2022-11-20T09:38:21;98792.06;;;11.71;48.08
69796;BME280;57073;45.650;9.612;2022-11-20T09:58:39;98783.41;;;11.93;48.25
69796;BME280;57073;45.650;9.612;2022-11-20T10:08:58;98784.00;;;11.95;48.23
69796;BME280;57073;45.650;9.612;2022-11-20T10:29:19;98762.75;;;11.69;48.18
69796;BME280;57073;45.650;9.612;2022-11-20T10:39:28;98745.75;;;11.93;48.98
69796;BME280;57073;45.650;9.612;2022-11-20T10:49:33;98752.03;;;11.98;47.62
69796;BME280;57073;45.650;9.612;2022-11-20T10:59:52;98749.44;;;12.03;45.67
69796;BME280;57073;45.650;9.612;2022-11-20T11:09:56;98740.22;;;12.11;46.21
69796;BME280;57073;45.650;9.612;2022-11-20T11:30:14;98724.66;;;12.30;46.67
69796;BME280;57073;45.650;9.612;2022-11-20T11:40:17;98717.50;;;12.36;47.44
69796;BME280;57073;45.650;9.612;2022-11-20T11:50:25;98702.66;;;12.33;45.60
69796;BME280;57073;45.650;9.612;2022-11-20T12:00:26;98694.03;;;12.31;44.56
69796;BME280;57073;45.650;9.612;2022-11-20T12:20:43;98686.00;;;12.36;43.88
69796;BME280;57073;45.650;9.612;2022-11-20T13:01:44;98646.38;;;12.82;46.22
69796;BME280;57073;45.650;9.612;2022-11-20T13:22:27;98633.78;;;12.88;46.62
69796;BME280;57073;45.650;9.612;2022-11-20T13:32:27;98634.59;;;12.89;45.45
69796;BME280;57073;45.650;9.612;2022-11-20T13:42:35;98618.31;;;12.78;46.19
69796;BME280;57073;45.650;9.612;2022-11-20T13:52:46;98600.81;;;12.81;46.59
69796;BME280;57073;45.650;9.612;2022-11-20T14:12:58;98603.81;;;12.62;47.66
69796;BME280;57073;45.650;9.612;2022-11-20T14:23:10;98612.06;;;12.56;47.88
69796;BME280;57073;45.650;9.612;2022-11-20T14:33:12;98618.84;;;12.58;48.04
69796;BME280;57073;45.650;9.612;2022-11-20T14:43:24;98603.31;;;12.49;48.55
69796;BME280;57073;45.650;9.612;2022-11-20T14:53:25;98606.59;;;12.34;48.29
69796;BME280;57073;45.650;9.612;2022-11-20T15:03:37;98609.41;;;12.22;48.36
69796;BME280;57073;45.650;9.612;2022-11-20T15:13:38;98610.34;;;12.16;49.05
69796;BME280;57073;45.650;9.612;2022-11-20T15:23:39;98625.03;;;12.08;49.31
69796;BME280;57073;45.650;9.612;2022-11-20T15:33:39;98619.47;;;11.98;50.55
69796;BME280;57073;45.650;9.612;2022-11-20T15:43:39;98613.72;;;11.77;51.85
69796;BME280;57073;45.650;9.612;2022-11-20T15:53:41;98625.47;;;11.59;52.66
69796;BME280;57073;45.650;9.612;2022-11-20T16:03:42;98626.25;;;11.43;53.41
69796;BME280;57073;45.650;9.612;2022-11-20T16:13:43;98639.16;;;11.17;54.87
69796;BME280;57073;45.650;9.612;2022-11-20T16:24:04;98650.50;;;11.07;54.82
69796;BME280;57073;45.650;9.612;2022-11-20T16:34:06;98651.25;;;10.79;56.19
69796;BME280;57073;45.650;9.612;2022-11-20T16:44:09;98659.06;;;10.57;57.40
69796;BME280;57073;45.650;9.612;2022-11-20T16:54:10;98647.72;;;10.43;58.39
69796;BME280;57073;45.650;9.612;2022-11-20T17:04:10;98659.25;;;10.32;58.42
69796;BME280;57073;45.650;9.612;2022-11-20T17:14:11;98671.03;;;10.31;58.70
69796;BME280;57073;45.650;9.612;2022-11-20T17:24:12;98676.22;;;10.14;59.36
69796;BME280;57073;45.650;9.612;2022-11-20T17:34:13;98680.84;;;10.07;59.61
69796;BME280;57073;45.650;9.612;2022-11-20T17:44:14;98676.41;;;10.01;60.55
69796;BME280;57073;45.650;9.612;2022-11-20T17:54:15;98688.81;;;9.83;60.75
69796;BME280;57073;45.650;9.612;2022-11-20T18:04:16;98683.97;;;9.92;60.19
69796;BME280;57073;45.650;9.612;2022-11-20T18:14:16;98676.97;;;9.91;60.17
69796;BME280;57073;45.650;9.612;2022-11-20T18:24:34;98696.78;;;9.71;60.43
69796;BME280;57073;45.650;9.612;2022-11-20T18:34:38;98687.63;;;9.30;62.04
69796;BME280;57073;45.650;9.612;2022-11-20T18:44:39;98685.41;;;9.09;63.41
69796;BME280;57073;45.650;9.612;2022-11-20T18:54:51;98688.13;;;8.83;64.04
69796;BME280;57073;45.650;9.612;2022-11-20T19:04:52;98703.09;;;8.66;64.09
69796;BME280;57073;45.650;9.612;2022-11-20T19:14:52;98706.84;;;8.58;64.70
69796;BME280;57073;45.650;9.612;2022-11-20T19:24:52;98685.13;;;8.48;63.59
69796;BME280;57073;45.650;9.612;2022-11-20T19:34:53;98690.16;;;8.63;62.43
69796;BME280;57073;45.650;9.612;2022-11-20T19:44:53;98657.38;;;8.68;61.71
69796;BME280;57073;45.650;9.612;2022-11-20T19:54:53;98641.41;;;8.61;60.96
69796;BME280;57073;45.650;9.612;2022-11-20T20:04:54;98663.72;;;8.48;61.53
69796;BME280;57073;45.650;9.612;2022-11-20T20:14:54;98667.91;;;8.37;62.73
69796;BME280;57073;45.650;9.612;2022-11-20T20:24:54;98660.81;;;8.24;62.38
69796;BME280;57073;45.650;9.612;2022-11-20T20:34:55;98663.22;;;8.07;62.47
69796;BME280;57073;45.650;9.612;2022-11-20T20:44:55;98676.53;;;7.76;62.41
69796;BME280;57073;45.650;9.612;2022-11-20T20:55:10;98683.03;;;7.55;63.98
69796;BME280;57073;45.650;9.612;2022-11-20T21:05:10;98675.72;;;7.75;62.35
69796;BME280;57073;45.650;9.612;2022-11-20T21:15:10;98701.53;;;7.49;62.45
69796;BME280;57073;45.650;9.612;2022-11-20T21:25:11;98719.75;;;7.66;59.67
69796;BME280;57073;45.650;9.612;2022-11-20T21:35:11;98722.59;;;7.71;58.29
69796;BME280;57073;45.650;9.612;2022-11-20T21:45:12;98729.94;;;7.82;57.56
69796;BME280;57073;45.650;9.612;2022-11-20T21:55:12;98732.72;;;8.01;58.70
69796;BME280;57073;45.650;9.612;2022-11-20T22:05:12;98740.09;;;8.05;60.32
69796;BME280;57073;45.650;9.612;2022-11-20T22:15:13;98692.41;;;8.02;59.30
69796;BME280;57073;45.650;9.612;2022-11-20T22:25:13;98687.84;;;8.10;58.72
69796;BME280;57073;45.650;9.612;2022-11-20T22:35:13;98684.44;;;7.96;59.88
69796;BME280;57073;45.650;9.612;2022-11-20T22:45:14;98681.03;;;7.89;60.21
69796;BME280;57073;45.650;9.612;2022-11-20T22:55:14;98660.38;;;7.96;59.43
69796;BME280;57073;45.650;9.612;2022-11-20T23:05:15;98669.28;;;7.90;59.20
69796;BME280;57073;45.650;9.612;2022-11-20T23:15:15;98680.78;;;7.90;60.09
69796;BME280;57073;45.650;9.612;2022-11-20T23:25:15;98660.69;;;7.81;60.36
69796;BME280;57073;45.650;9.612;2022-11-20T23:35:16;98655.16;;;7.76;60.57
69796;BME280;57073;45.650;9.612;2022-11-20T23:45:16;98649.13;;;7.55;61.27
69796;BME280;57073;45.650;9.612;2022-11-20T23:55:16;98657.44;;;7.34;61.83
